createdAt,value
2018-11-25T00:01:06.629Z,3.96
2018-11-25T00:02:15.554Z,3.96
2018-11-25T00:03:24.233Z,3.95
2018-11-25T00:04:32.927Z,3.88
2018-11-25T00:05:41.862Z,3.94
2018-11-25T00:06:50.799Z,3.84
2018-11-25T00:07:59.740Z,3.85
2018-11-25T00:09:09.177Z,3.92
2018-11-25T00:10:18.359Z,3.94
2018-11-25T00:11:27.550Z,3.89
2018-11-25T00:12:36.236Z,3.89
2018-11-25T00:13:45.184Z,3.96
2018-11-25T00:14:53.854Z,3.96
2018-11-25T00:16:02.543Z,3.96
2018-11-25T00:17:11.210Z,3.92
2018-11-25T00:18:20.375Z,3.99
2018-11-25T00:19:29.059Z,3.91
2018-11-25T00:20:37.999Z,3.94
2018-11-25T00:21:46.682Z,4
2018-11-25T00:22:55.360Z,3.95
2018-11-25T00:24:04.048Z,3.94
2018-11-25T00:25:13.049Z,4
2018-11-25T00:26:21.763Z,3.92
2018-11-25T00:27:30.439Z,3.92
2018-11-25T00:28:39.119Z,3.99
2018-11-25T00:29:47.825Z,3.94
2018-11-25T00:30:56.517Z,3.92
2018-11-25T00:32:13.872Z,3.86
2018-11-25T00:33:22.560Z,3.94
2018-11-25T00:34:31.231Z,3.91
2018-11-25T00:35:40.179Z,3.94
2018-11-25T00:36:48.854Z,3.94
2018-11-25T00:37:57.546Z,3.96
2018-11-25T00:39:06.732Z,3.92
2018-11-25T00:40:15.466Z,3.96
2018-11-25T00:41:24.164Z,3.95
2018-11-25T00:42:33.096Z,3.95
2018-11-25T00:43:41.793Z,3.94
2018-11-25T00:44:50.463Z,3.92
2018-11-25T00:45:59.142Z,3.99
2018-11-25T00:47:07.820Z,3.82
2018-11-25T00:48:16.511Z,3.89
2018-11-25T00:49:25.697Z,3.86
2018-11-25T00:50:34.637Z,3.92
2018-11-25T00:51:43.572Z,3.86
2018-11-25T00:52:52.257Z,3.88
2018-11-25T00:54:00.954Z,3.88
2018-11-25T00:55:09.649Z,3.81
2018-11-25T00:56:18.583Z,3.81
2018-11-25T00:57:27.262Z,3.82
2018-11-25T00:58:35.934Z,3.84
2018-11-25T00:59:44.617Z,3.78
2018-11-25T01:00:53.545Z,3.82
2018-11-25T01:02:02.479Z,3.78
2018-11-25T01:03:11.170Z,3.81
2018-11-25T01:04:19.845Z,3.78
2018-11-25T01:05:28.538Z,3.84
2018-11-25T01:06:37.461Z,3.84
2018-11-25T01:07:46.413Z,3.88
2018-11-25T01:08:55.350Z,3.82
2018-11-25T01:10:04.028Z,3.74
2018-11-25T01:11:12.699Z,3.76
2018-11-25T01:12:21.418Z,3.86
2018-11-25T01:13:30.095Z,3.84
2018-11-25T01:14:39.033Z,3.78
2018-11-25T01:15:47.955Z,3.82
2018-11-25T01:16:56.637Z,3.81
2018-11-25T01:18:05.320Z,3.81
2018-11-25T01:19:14.050Z,3.78
2018-11-25T01:20:22.743Z,3.74
2018-11-25T01:21:31.923Z,3.74
2018-11-25T01:22:40.852Z,3.74
2018-11-25T01:23:49.536Z,3.76
2018-11-25T01:24:58.478Z,3.78
2018-11-25T01:26:07.667Z,3.76
2018-11-25T01:27:16.357Z,3.73
2018-11-25T01:28:25.540Z,3.76
2018-11-25T01:29:34.478Z,3.7
2018-11-25T01:30:43.407Z,3.78
2018-11-25T01:31:52.341Z,3.68
2018-11-25T01:33:01.017Z,3.68
2018-11-25T01:34:09.712Z,3.78
2018-11-25T01:35:18.387Z,3.71
2018-11-25T01:36:27.069Z,3.71
2018-11-25T01:37:36.000Z,3.68
2018-11-25T01:38:44.682Z,3.7
2018-11-25T01:39:53.363Z,3.73
2018-11-25T01:41:02.041Z,3.71
2018-11-25T01:42:10.718Z,3.68
2018-11-25T01:43:19.414Z,3.73
2018-11-25T01:44:28.092Z,3.74
2018-11-25T01:45:36.774Z,3.7
2018-11-25T01:46:45.704Z,3.68
2018-11-25T01:47:54.386Z,3.7
2018-11-25T01:49:03.078Z,3.71
2018-11-25T01:50:12.006Z,3.76
2018-11-25T01:51:20.938Z,3.7
2018-11-25T01:52:29.863Z,3.74
2018-11-25T01:53:38.551Z,3.76
2018-11-25T01:54:47.493Z,3.7
2018-11-25T01:55:56.440Z,3.76
2018-11-25T01:57:05.125Z,3.7
2018-11-25T01:58:13.800Z,3.85
2018-11-25T01:59:22.482Z,3.68
2018-11-25T02:00:31.157Z,3.7
2018-11-25T02:01:39.843Z,3.66
2018-11-25T02:02:48.520Z,3.68
2018-11-25T02:03:57.455Z,3.73
2018-11-25T02:05:06.388Z,3.73
2018-11-25T02:06:15.072Z,3.71
2018-11-25T02:07:23.743Z,3.73
2018-11-25T02:08:32.709Z,3.68
2018-11-25T02:09:41.388Z,3.68
2018-11-25T02:10:50.077Z,3.71
2018-11-25T02:11:58.752Z,3.68
2018-11-25T02:13:07.683Z,3.74
2018-11-25T02:14:16.356Z,3.73
2018-11-25T02:15:25.028Z,3.76
2018-11-25T02:16:33.708Z,3.78
2018-11-25T02:17:42.644Z,3.71
2018-11-25T02:18:51.328Z,3.73
2018-11-25T02:20:00.509Z,3.74
2018-11-25T02:21:09.192Z,3.73
2018-11-25T02:22:18.124Z,3.78
2018-11-25T02:23:26.803Z,3.81
2018-11-25T02:24:35.761Z,3.76
2018-11-25T02:25:44.698Z,3.77
2018-11-25T02:26:53.629Z,3.85
2018-11-25T02:28:02.320Z,3.78
2018-11-25T02:29:11.261Z,3.78
2018-11-25T02:30:19.950Z,3.71
2018-11-25T02:31:28.903Z,3.82
2018-11-25T02:32:37.834Z,3.7
2018-11-25T02:33:46.786Z,3.82
2018-11-25T02:34:55.707Z,3.82
2018-11-25T02:36:04.445Z,3.85
2018-11-25T02:37:13.431Z,3.76
2018-11-25T02:38:22.113Z,3.81
2018-11-25T02:39:30.796Z,3.74
2018-11-25T02:40:39.482Z,3.84
2018-11-25T02:41:48.925Z,3.86
2018-11-25T02:42:57.873Z,3.77
2018-11-25T02:44:06.819Z,3.74
2018-11-25T02:45:15.758Z,3.81
2018-11-25T02:46:24.696Z,3.76
2018-11-25T02:47:33.380Z,3.76
2018-11-25T02:48:42.056Z,3.81
2018-11-25T02:49:51.243Z,3.86
2018-11-25T02:51:00.166Z,3.78
2018-11-25T02:52:09.100Z,3.78
2018-11-25T02:53:17.791Z,3.7
2018-11-25T02:54:26.469Z,3.73
2018-11-25T02:55:35.154Z,3.71
2018-11-25T02:56:44.078Z,3.73
2018-11-25T02:57:52.785Z,3.76
2018-11-25T02:59:01.462Z,3.73
2018-11-25T03:00:10.395Z,3.73
2018-11-25T03:01:19.579Z,3.71
2018-11-25T03:02:28.273Z,3.74
2018-11-25T03:03:36.949Z,3.71
2018-11-25T03:04:45.635Z,3.76
2018-11-25T03:05:54.308Z,3.7
2018-11-25T03:07:02.986Z,3.76
2018-11-25T03:08:11.679Z,3.76
2018-11-25T03:09:20.361Z,3.78
2018-11-25T03:10:29.307Z,3.74
2018-11-25T03:11:38.509Z,3.73
2018-11-25T03:12:47.195Z,3.73
2018-11-25T03:13:56.126Z,3.7
2018-11-25T03:15:05.336Z,3.7
2018-11-25T03:16:14.008Z,3.74
2018-11-25T03:17:22.694Z,3.74
2018-11-25T03:18:31.370Z,3.74
2018-11-25T03:19:40.326Z,3.7
2018-11-25T03:20:49.260Z,3.7
2018-11-25T03:21:57.943Z,3.73
2018-11-25T03:23:06.879Z,3.7
2018-11-25T03:24:15.826Z,3.74
2018-11-25T03:25:24.505Z,3.76
2018-11-25T03:26:33.721Z,3.73
2018-11-25T03:27:42.648Z,3.86
2018-11-25T03:28:51.787Z,3.74
2018-11-25T03:30:00.858Z,3.84
2018-11-25T03:31:09.694Z,3.82
2018-11-25T03:32:19.106Z,3.85
2018-11-25T03:33:27.775Z,3.82
2018-11-25T03:34:36.535Z,3.82
2018-11-25T03:35:45.549Z,3.81
2018-11-25T03:36:54.740Z,3.85
2018-11-25T03:38:03.411Z,3.81
2018-11-25T03:39:12.400Z,3.81
2018-11-25T03:40:21.091Z,3.82
2018-11-25T03:41:30.060Z,3.82
2018-11-25T03:42:39.274Z,3.92
2018-11-25T03:43:47.956Z,3.85
2018-11-25T03:44:56.645Z,3.85
2018-11-25T03:46:05.320Z,3.84
2018-11-25T03:47:13.993Z,3.85
2018-11-25T03:48:22.677Z,3.84
2018-11-25T03:49:31.604Z,3.92
2018-11-25T03:50:40.284Z,3.84
2018-11-25T03:51:48.952Z,3.88
2018-11-25T03:52:57.643Z,3.77
2018-11-25T03:54:06.571Z,3.77
2018-11-25T03:55:15.517Z,3.78
2018-11-25T03:56:24.190Z,3.85
2018-11-25T03:57:33.135Z,3.92
2018-11-25T03:58:42.063Z,3.88
2018-11-25T03:59:50.743Z,3.82
2018-11-25T04:00:59.665Z,3.78
2018-11-25T04:02:08.608Z,3.81
2018-11-25T04:03:17.548Z,3.81
2018-11-25T04:04:26.494Z,3.82
2018-11-25T04:05:35.181Z,3.82
2018-11-25T04:06:44.102Z,3.76
2018-11-25T04:07:53.058Z,3.86
2018-11-25T04:09:01.984Z,3.76
2018-11-25T04:10:10.933Z,3.74
2018-11-25T04:11:19.624Z,3.86
2018-11-25T04:12:28.354Z,3.77
2018-11-25T04:13:37.033Z,3.71
2018-11-25T04:14:45.724Z,3.84
2018-11-25T04:15:54.657Z,3.78
2018-11-25T04:17:03.591Z,3.7
2018-11-25T04:18:12.267Z,3.76
2018-11-25T04:19:21.207Z,3.76
2018-11-25T04:20:29.878Z,3.74
2018-11-25T04:21:38.549Z,3.73
2018-11-25T04:22:47.231Z,3.7
2018-11-25T04:23:55.923Z,3.66
2018-11-25T04:25:04.882Z,3.73
2018-11-25T04:26:13.804Z,3.71
2018-11-25T04:27:22.500Z,3.7
2018-11-25T04:28:31.239Z,3.73
2018-11-25T04:29:40.194Z,3.71
2018-11-25T04:30:49.124Z,3.78
2018-11-25T04:31:57.803Z,3.74
2018-11-25T04:33:06.726Z,3.76
2018-11-25T04:34:15.419Z,3.73
2018-11-25T04:35:24.105Z,3.73
2018-11-25T04:36:33.047Z,3.7
2018-11-25T04:37:41.971Z,3.78
2018-11-25T04:38:50.918Z,3.73
2018-11-25T04:39:59.597Z,3.7
2018-11-25T04:41:08.284Z,3.74
2018-11-25T04:42:16.963Z,3.76
2018-11-25T04:43:25.631Z,3.76
2018-11-25T04:44:34.320Z,3.74
2018-11-25T04:45:43.249Z,3.77
2018-11-25T04:46:51.940Z,3.7
2018-11-25T04:48:01.126Z,3.67
2018-11-25T04:49:10.066Z,3.67
2018-11-25T04:50:18.753Z,3.71
2018-11-25T04:51:27.703Z,3.63
2018-11-25T04:52:36.626Z,3.61
2018-11-25T04:53:45.668Z,3.7
2018-11-25T04:54:54.599Z,3.66
2018-11-25T04:56:03.362Z,3.67
2018-11-25T04:57:12.303Z,3.67
2018-11-25T04:58:21.010Z,3.64
2018-11-25T04:59:29.685Z,3.63
2018-11-25T05:00:38.356Z,3.64
2018-11-25T05:01:47.044Z,3.64
2018-11-25T05:02:55.729Z,3.63
2018-11-25T05:04:04.420Z,3.78
2018-11-25T05:05:13.612Z,3.63
2018-11-25T05:06:22.308Z,3.66
2018-11-25T05:07:30.988Z,3.61
2018-11-25T05:08:39.675Z,3.7
2018-11-25T05:09:48.615Z,3.71
2018-11-25T05:10:57.302Z,3.66
2018-11-25T05:12:06.229Z,3.71
2018-11-25T05:13:14.923Z,3.66
2018-11-25T05:14:23.605Z,3.71
2018-11-25T05:15:32.537Z,3.68
2018-11-25T05:16:41.217Z,3.76
2018-11-25T05:17:49.906Z,3.68
2018-11-25T05:18:58.847Z,3.77
2018-11-25T05:20:07.774Z,3.7
2018-11-25T05:21:16.710Z,3.56
2018-11-25T05:22:25.396Z,3.73
2018-11-25T05:23:34.334Z,3.67
2018-11-25T05:24:43.006Z,3.67
2018-11-25T05:25:51.736Z,3.71
2018-11-25T05:27:00.411Z,3.74
2018-11-25T05:28:09.111Z,3.67
2018-11-25T05:29:18.293Z,3.67
2018-11-25T05:30:27.231Z,3.68
2018-11-25T05:31:36.430Z,3.67
2018-11-25T05:32:45.110Z,3.59
2018-11-25T05:33:54.044Z,3.73
2018-11-25T05:35:02.979Z,3.67
2018-11-25T05:36:11.905Z,3.64
2018-11-25T05:37:20.579Z,3.66
2018-11-25T05:38:29.263Z,3.74
2018-11-25T05:39:37.948Z,3.76
2018-11-25T05:40:46.628Z,3.67
2018-11-25T05:41:55.553Z,3.67
2018-11-25T05:43:04.230Z,3.64
2018-11-25T05:44:12.908Z,3.66
2018-11-25T05:45:21.595Z,3.67
2018-11-25T05:46:30.532Z,3.59
2018-11-25T05:47:39.454Z,3.59
2018-11-25T05:48:48.390Z,3.77
2018-11-25T05:49:57.061Z,3.67
2018-11-25T05:51:05.764Z,3.7
2018-11-25T05:52:14.690Z,3.63
2018-11-25T05:53:23.371Z,3.68
2018-11-25T05:54:32.056Z,3.68
2018-11-25T05:55:40.985Z,3.66
2018-11-25T05:56:49.672Z,3.7
2018-11-25T05:57:58.344Z,3.61
2018-11-25T05:59:07.026Z,3.64
2018-11-25T06:00:15.947Z,3.78
2018-11-25T06:01:24.898Z,3.67
2018-11-25T06:02:33.828Z,3.67
2018-11-25T06:03:42.789Z,3.63
2018-11-25T06:04:51.455Z,3.64
2018-11-25T06:06:00.393Z,3.53
2018-11-25T06:07:09.317Z,3.55
2018-11-25T06:08:18.008Z,3.56
2018-11-25T06:09:26.686Z,3.64
2018-11-25T06:10:35.365Z,3.64
2018-11-25T06:11:44.304Z,3.63
2018-11-25T06:12:53.233Z,3.61
2018-11-25T06:14:01.916Z,3.56
2018-11-25T06:15:10.592Z,3.61
2018-11-25T06:16:19.787Z,3.67
2018-11-25T06:17:28.465Z,3.66
2018-11-25T06:18:37.408Z,3.61
2018-11-25T06:19:46.609Z,3.68
2018-11-25T06:20:55.544Z,3.61
2018-11-25T06:22:04.215Z,3.58
2018-11-25T06:23:12.903Z,3.67
2018-11-25T06:24:21.587Z,3.67
2018-11-25T06:25:30.266Z,3.61
2018-11-25T06:26:38.949Z,3.64
2018-11-25T06:27:47.902Z,3.5
2018-11-25T06:28:56.596Z,3.52
2018-11-25T06:30:05.523Z,3.64
2018-11-25T06:31:14.453Z,3.55
2018-11-25T06:32:23.126Z,3.5
2018-11-25T06:33:31.832Z,3.49
2018-11-25T06:34:40.752Z,3.61
2018-11-25T06:35:49.437Z,3.56
2018-11-25T06:36:58.110Z,3.52
2018-11-25T06:38:07.077Z,3.48
2018-11-25T06:39:15.782Z,3.5
2018-11-25T06:40:24.470Z,3.68
2018-11-25T06:41:38.342Z,3.63
2018-11-25T06:42:47.286Z,3.67
2018-11-25T06:43:56.211Z,3.64
2018-11-25T06:45:04.887Z,3.63
2018-11-25T06:46:13.560Z,3.61
2018-11-25T06:47:22.360Z,3.58
2018-11-25T06:48:31.117Z,3.5
2018-11-25T06:49:39.816Z,3.59
2018-11-25T06:50:48.505Z,3.61
2018-11-25T06:51:57.186Z,3.63
2018-11-25T06:53:05.869Z,3.59
2018-11-25T06:54:14.805Z,3.59
2018-11-25T06:55:24.008Z,3.58
2018-11-25T06:56:33.191Z,3.53
2018-11-25T06:57:41.870Z,3.56
2018-11-25T06:58:50.549Z,3.58
2018-11-25T06:59:59.490Z,3.59
2018-11-25T07:01:08.167Z,3.64
2018-11-25T07:02:16.848Z,3.58
2018-11-25T07:03:25.530Z,3.64
2018-11-25T07:04:34.213Z,3.56
2018-11-25T07:05:42.885Z,3.63
2018-11-25T07:06:51.566Z,3.48
2018-11-25T07:08:00.243Z,3.59
2018-11-25T07:09:09.861Z,3.59
2018-11-25T07:10:18.955Z,3.59
2018-11-25T07:11:27.897Z,3.5
2018-11-25T07:12:36.580Z,3.48
2018-11-25T07:13:45.538Z,3.59
2018-11-25T07:14:54.476Z,3.48
2018-11-25T07:16:03.422Z,3.46
2018-11-25T07:17:13.100Z,3.56
2018-11-25T07:18:22.026Z,3.58
2018-11-25T07:19:30.966Z,3.49
2018-11-25T07:20:39.941Z,3.58
2018-11-25T07:21:48.879Z,3.53
2018-11-25T07:22:58.606Z,3.49
2018-11-25T07:24:07.288Z,3.55
2018-11-25T07:25:16.237Z,3.56
2018-11-25T07:26:25.190Z,3.52
2018-11-25T07:27:33.869Z,3.63
2018-11-25T07:28:42.800Z,3.61
2018-11-25T07:29:51.484Z,3.68
2018-11-25T07:31:00.419Z,3.64
2018-11-25T07:32:09.358Z,3.67
2018-11-25T07:33:18.032Z,3.58
2018-11-25T07:34:26.724Z,3.67
2018-11-25T07:35:35.404Z,3.61
2018-11-25T07:36:44.347Z,3.7
2018-11-25T07:37:53.272Z,3.56
2018-11-25T07:39:02.465Z,3.55
2018-11-25T07:40:11.153Z,3.64
2018-11-25T07:41:20.080Z,3.58
2018-11-25T07:42:28.757Z,3.58
2018-11-25T07:43:37.438Z,3.59
2018-11-25T07:44:46.120Z,3.7
2018-11-25T07:45:54.797Z,3.59
2018-11-25T07:47:03.998Z,3.7
2018-11-25T07:48:13.182Z,3.67
2018-11-25T07:49:22.117Z,3.64
2018-11-25T07:50:30.803Z,3.73
2018-11-25T07:51:39.478Z,3.61
2018-11-25T07:52:48.160Z,3.71
2018-11-25T07:53:57.357Z,3.59
2018-11-25T07:55:06.295Z,3.63
2018-11-25T07:56:14.969Z,3.63
2018-11-25T07:57:23.898Z,3.7
2018-11-25T07:58:32.613Z,3.64
2018-11-25T07:59:41.556Z,3.61
2018-11-25T08:00:50.230Z,3.61
2018-11-25T08:01:58.916Z,3.7
2018-11-25T08:03:07.598Z,3.76
2018-11-25T08:04:16.537Z,3.73
2018-11-25T08:05:25.237Z,3.73
2018-11-25T08:06:33.914Z,3.7
2018-11-25T08:07:42.845Z,3.71
2018-11-25T08:08:51.788Z,3.71
2018-11-25T08:10:00.726Z,3.73
2018-11-25T08:11:09.402Z,3.73
2018-11-25T08:12:18.635Z,3.78
2018-11-25T08:13:27.311Z,3.74
2018-11-25T08:14:36.005Z,3.76
2018-11-25T08:15:44.695Z,3.71
2018-11-25T08:16:53.377Z,3.76
2018-11-25T08:18:02.065Z,3.71
2018-11-25T08:19:11.254Z,3.73
2018-11-25T08:20:19.945Z,3.74
2018-11-25T08:21:28.636Z,3.74
2018-11-25T08:22:37.320Z,3.68
2018-11-25T08:23:46.249Z,3.71
2018-11-25T08:24:54.929Z,3.7
2018-11-25T08:26:03.616Z,3.7
2018-11-25T08:27:12.352Z,3.7
2018-11-25T08:28:21.678Z,3.67
2018-11-25T08:29:30.368Z,3.66
2018-11-25T08:30:39.305Z,3.73
2018-11-25T08:31:48.255Z,3.73
2018-11-25T08:32:57.204Z,3.7
2018-11-25T08:34:05.946Z,3.68
2018-11-25T08:35:14.879Z,3.68
2018-11-25T08:36:23.577Z,3.77
2018-11-25T08:37:32.515Z,3.81
2018-11-25T08:38:41.449Z,3.81
2018-11-25T08:39:50.140Z,3.84
2018-11-25T08:40:58.819Z,3.86
2018-11-25T08:42:07.512Z,3.82
2018-11-25T08:43:16.208Z,3.82
2018-11-25T08:44:24.889Z,3.84
2018-11-25T08:45:33.562Z,3.85
2018-11-25T08:46:42.249Z,3.84
2018-11-25T08:47:50.925Z,3.88
2018-11-25T08:48:59.616Z,3.88
2018-11-25T08:50:08.289Z,3.86
2018-11-25T08:51:16.978Z,3.91
2018-11-25T08:52:25.658Z,3.84
2018-11-25T08:53:34.337Z,3.85
2018-11-25T08:54:43.010Z,3.89
2018-11-25T08:55:51.684Z,3.88
2018-11-25T08:57:00.368Z,3.88
2018-11-25T08:58:09.554Z,3.91
2018-11-25T08:59:18.240Z,3.85
2018-11-25T09:00:27.574Z,3.95
2018-11-25T09:01:36.544Z,3.92
2018-11-25T09:02:45.220Z,4.04
2018-11-25T09:03:54.173Z,4.06
2018-11-25T09:05:02.838Z,4.02
2018-11-25T09:06:12.043Z,4.06
2018-11-25T09:07:20.975Z,4.06
2018-11-25T09:08:29.914Z,4.1
2018-11-25T09:09:38.592Z,4.03
2018-11-25T09:10:47.543Z,4.16
2018-11-25T09:11:56.224Z,4.04
2018-11-25T09:13:04.914Z,4.06
2018-11-25T09:14:13.592Z,4.09
2018-11-25T09:15:22.772Z,4.12
2018-11-25T09:16:31.459Z,4.18
2018-11-25T09:17:40.133Z,4.16
2018-11-25T09:18:48.830Z,4.24
2018-11-25T09:19:57.507Z,4.1
2018-11-25T09:21:06.206Z,4.16
2018-11-25T09:22:15.135Z,4.16
2018-11-25T09:23:23.828Z,4.14
2018-11-25T09:24:32.505Z,4.07
2018-11-25T09:25:41.456Z,4.22
2018-11-25T09:26:50.126Z,4.18
2018-11-25T09:27:59.337Z,4.14
2018-11-25T09:29:08.534Z,4.21
2018-11-25T09:30:17.469Z,4.27
2018-11-25T09:31:26.393Z,4.3
2018-11-25T09:32:35.327Z,4.27
2018-11-25T09:33:44.015Z,4.27
2018-11-25T09:34:52.697Z,4.34
2018-11-25T09:36:01.374Z,4.3
2018-11-25T09:37:10.294Z,4.34
2018-11-25T09:38:18.981Z,4.34
2018-11-25T09:39:27.661Z,4.22
2018-11-25T09:40:36.607Z,4.21
2018-11-25T09:41:45.280Z,4.3
2018-11-25T09:42:53.965Z,4.18
2018-11-25T09:44:02.646Z,4.13
2018-11-25T09:45:11.600Z,4.13
2018-11-25T09:46:20.531Z,4.12
2018-11-25T09:47:29.215Z,4.13
2018-11-25T09:48:37.894Z,4.12
2018-11-25T09:49:46.827Z,4.12
2018-11-25T09:50:55.770Z,4.13
2018-11-25T09:52:04.706Z,4.21
2018-11-25T09:53:13.386Z,4.16
2018-11-25T09:54:22.072Z,4.12
2018-11-25T09:55:31.018Z,4.2
2018-11-25T09:56:40.755Z,4.16
2018-11-25T09:57:49.952Z,4.21
2018-11-25T09:58:58.938Z,4.16
2018-11-25T10:00:07.622Z,4.16
2018-11-25T10:01:16.307Z,4.16
2018-11-25T10:02:24.990Z,4.18
2018-11-25T10:03:33.664Z,4.09
2018-11-25T10:04:42.356Z,4.12
2018-11-25T10:05:51.037Z,4.2
2018-11-25T10:06:59.721Z,4.14
2018-11-25T10:08:08.925Z,4.13
2018-11-25T10:09:17.613Z,4.16
2018-11-25T10:10:26.289Z,4.2
2018-11-25T10:11:34.984Z,4.2
2018-11-25T10:12:43.936Z,4.25
2018-11-25T10:13:52.894Z,4.16
2018-11-25T10:15:01.575Z,4.28
2018-11-25T10:16:10.256Z,4.31
2018-11-25T10:17:18.943Z,4.31
2018-11-25T10:18:27.621Z,4.24
2018-11-25T10:19:36.302Z,4.36
2018-11-25T10:20:44.978Z,4.36
2018-11-25T10:21:53.910Z,4.32
2018-11-25T10:23:02.855Z,4.4
2018-11-25T10:24:11.806Z,4.36
2018-11-25T10:25:20.740Z,4.36
2018-11-25T10:26:29.689Z,4.28
2018-11-25T10:27:38.375Z,4.3
2018-11-25T10:28:47.056Z,4.27
2018-11-25T10:29:55.737Z,4.39
2018-11-25T10:31:04.451Z,4.4
2018-11-25T10:32:13.140Z,4.4
2018-11-25T10:33:22.083Z,4.39
2018-11-25T10:34:30.763Z,4.42
2018-11-25T10:35:39.487Z,4.45
2018-11-25T10:36:48.169Z,4.48
2018-11-25T10:37:57.357Z,4.53
2018-11-25T10:39:06.046Z,4.45
2018-11-25T10:40:14.726Z,4.5
2018-11-25T10:41:23.925Z,4.49
2018-11-25T10:42:32.610Z,4.48
2018-11-25T10:43:41.285Z,4.52
2018-11-25T10:44:50.204Z,4.56
2018-11-25T10:45:58.898Z,4.5
2018-11-25T10:47:07.590Z,4.46
2018-11-25T10:48:16.276Z,4.48
2018-11-25T10:49:24.966Z,4.49
2018-11-25T10:50:33.645Z,4.58
2018-11-25T10:51:42.857Z,4.46
2018-11-25T10:52:51.529Z,4.48
2018-11-25T10:54:00.472Z,4.46
2018-11-25T10:55:09.164Z,4.4
2018-11-25T10:56:19.248Z,4.46
2018-11-25T10:57:27.927Z,4.48
2018-11-25T10:58:36.620Z,4.45
2018-11-25T10:59:45.289Z,4.45
2018-11-25T11:00:53.973Z,4.42
2018-11-25T11:02:02.654Z,4.46
2018-11-25T11:03:11.341Z,4.46
2018-11-25T11:04:20.523Z,4.4
2018-11-25T11:05:29.205Z,4.49
2018-11-25T11:06:37.886Z,4.49
2018-11-25T11:07:46.811Z,4.49
2018-11-25T11:08:55.500Z,4.56
2018-11-25T11:10:04.698Z,4.48
2018-11-25T11:11:13.378Z,4.53
2018-11-25T11:12:22.046Z,4.5
2018-11-25T11:13:30.744Z,4.49
2018-11-25T11:14:39.672Z,4.52
2018-11-25T11:15:48.859Z,4.52
2018-11-25T11:16:58.620Z,4.6
2018-11-25T11:18:07.565Z,4.52
2018-11-25T11:19:16.241Z,4.58
2018-11-25T11:20:24.937Z,4.58
2018-11-25T11:21:33.622Z,4.57
2018-11-25T11:22:42.302Z,4.61
2018-11-25T11:23:50.991Z,4.63
2018-11-25T11:24:59.929Z,4.49
2018-11-25T11:26:11.441Z,4.52
2018-11-25T11:27:20.461Z,4.64
2018-11-25T11:28:29.437Z,4.5
2018-11-25T11:29:38.667Z,4.5
2018-11-25T11:30:47.604Z,4.4
2018-11-25T11:31:56.284Z,4.42
2018-11-25T11:33:05.223Z,4.42
2018-11-25T11:34:14.148Z,4.45
2018-11-25T11:35:22.840Z,4.49
2018-11-25T11:36:31.531Z,4.5
2018-11-25T11:37:40.463Z,4.49
2018-11-25T11:38:49.144Z,4.52
2018-11-25T11:39:58.069Z,4.49
2018-11-25T11:41:07.011Z,4.48
2018-11-25T11:42:15.695Z,4.5
2018-11-25T11:43:24.375Z,4.49
2018-11-25T11:44:33.320Z,4.6
2018-11-25T11:45:42.519Z,4.49
2018-11-25T11:46:51.219Z,4.52
2018-11-25T11:48:00.145Z,4.58
2018-11-25T11:49:09.089Z,4.57
2018-11-25T11:50:18.020Z,4.6
2018-11-25T11:51:30.376Z,4.49
2018-11-25T11:52:39.057Z,4.64
2018-11-25T11:53:48.000Z,4.53
2018-11-25T11:54:56.683Z,4.52
2018-11-25T11:56:05.365Z,4.52
2018-11-25T11:57:14.309Z,4.63
2018-11-25T11:58:23.256Z,4.5
2018-11-25T11:59:31.930Z,4.5
2018-11-25T12:00:40.605Z,4.52
2018-11-25T12:01:49.544Z,4.57
2018-11-25T12:02:58.738Z,4.64
2018-11-25T12:04:07.426Z,4.61
2018-11-25T12:05:16.363Z,4.64
2018-11-25T12:06:25.322Z,4.61
2018-11-25T12:07:34.056Z,4.64
2018-11-25T12:08:42.749Z,4.63
2018-11-25T12:09:51.424Z,4.5
2018-11-25T12:11:00.356Z,4.5
2018-11-25T12:12:09.278Z,4.5
2018-11-25T12:13:17.971Z,4.56
2018-11-25T12:14:26.903Z,4.57
2018-11-25T12:15:35.857Z,4.48
2018-11-25T12:16:44.536Z,4.52
2018-11-25T12:17:53.483Z,4.6
2018-11-25T12:19:02.431Z,4.57
2018-11-25T12:20:11.170Z,4.5
2018-11-25T12:21:19.852Z,4.64
2018-11-25T12:22:28.517Z,4.57
2018-11-25T12:23:37.724Z,4.53
2018-11-25T12:24:46.404Z,4.66
2018-11-25T12:25:55.094Z,4.63
2018-11-25T12:27:03.765Z,4.63
2018-11-25T12:28:12.449Z,4.5
2018-11-25T12:29:21.632Z,4.61
2018-11-25T12:30:30.585Z,4.64
2018-11-25T12:31:39.260Z,4.49
2018-11-25T12:32:48.208Z,4.66
2018-11-25T12:33:57.142Z,4.63
2018-11-25T12:35:06.097Z,4.66
2018-11-25T12:36:15.036Z,4.64
2018-11-25T12:37:23.721Z,4.74
2018-11-25T12:38:33.696Z,4.68
2018-11-25T12:39:42.373Z,4.68
2018-11-25T12:40:51.057Z,4.66
2018-11-25T12:42:00.248Z,4.61
2018-11-25T12:43:08.929Z,4.63
2018-11-25T12:44:17.618Z,4.64
2018-11-25T12:45:33.638Z,4.6
2018-11-25T12:46:42.566Z,4.64
2018-11-25T12:47:51.255Z,4.67
2018-11-25T12:49:00.197Z,4.64
2018-11-25T12:50:09.138Z,4.64
2018-11-25T12:51:17.824Z,4.64
2018-11-25T12:52:26.504Z,4.64
2018-11-25T12:53:35.187Z,4.68
2018-11-25T12:54:44.125Z,4.63
2018-11-25T12:55:52.805Z,4.68
2018-11-25T12:57:01.492Z,4.68
2018-11-25T12:58:10.171Z,4.68
2018-11-25T12:59:18.850Z,4.64
2018-11-25T13:00:27.531Z,4.66
2018-11-25T13:01:36.480Z,4.64
2018-11-25T13:02:45.160Z,4.64
2018-11-25T13:03:53.835Z,4.63
2018-11-25T13:05:02.762Z,4.64
2018-11-25T13:06:11.442Z,4.67
2018-11-25T13:07:20.127Z,4.7
2018-11-25T13:08:28.802Z,4.68
2018-11-25T13:09:37.490Z,4.67
2018-11-25T13:10:46.430Z,4.67
2018-11-25T13:11:56.870Z,4.64
2018-11-25T13:13:05.552Z,4.64
2018-11-25T13:14:14.490Z,4.7
2018-11-25T13:15:23.426Z,4.64
2018-11-25T13:16:32.109Z,4.6
2018-11-25T13:17:40.798Z,4.68
2018-11-25T13:18:49.488Z,4.68
2018-11-25T13:19:58.173Z,4.74
2018-11-25T13:21:06.851Z,4.66
2018-11-25T13:22:15.538Z,4.68
2018-11-25T13:23:24.471Z,4.68
2018-11-25T13:24:33.168Z,4.64
2018-11-25T13:25:41.840Z,4.67
2018-11-25T13:26:50.534Z,4.64
2018-11-25T13:27:59.720Z,4.66
2018-11-25T13:29:08.657Z,4.66
2018-11-25T13:30:17.341Z,4.63
2018-11-25T13:31:27.182Z,4.7
2018-11-25T13:32:36.112Z,4.63
2018-11-25T13:33:45.040Z,4.63
2018-11-25T13:34:53.719Z,4.64
2018-11-25T13:36:02.403Z,4.75
2018-11-25T13:37:11.085Z,4.76
2018-11-25T13:38:19.819Z,4.64
2018-11-25T13:39:28.758Z,4.78
2018-11-25T13:40:37.685Z,4.84
2018-11-25T13:41:46.617Z,4.75
2018-11-25T13:42:55.297Z,4.84
2018-11-25T13:44:04.236Z,4.75
2018-11-25T13:45:12.923Z,4.71
2018-11-25T13:46:21.867Z,4.71
2018-11-25T13:47:30.804Z,4.82
2018-11-25T13:48:39.765Z,4.78
2018-11-25T13:49:48.957Z,4.74
2018-11-25T13:50:57.638Z,4.74
2018-11-25T13:52:06.317Z,4.82
2018-11-25T13:53:15.262Z,4.76
2018-11-25T13:54:23.944Z,4.78
2018-11-25T13:55:32.642Z,4.76
2018-11-25T13:56:41.576Z,4.78
2018-11-25T13:57:50.261Z,4.68
2018-11-25T13:58:58.962Z,4.78
2018-11-25T14:00:07.904Z,4.76
2018-11-25T14:01:16.591Z,4.79
2018-11-25T14:02:25.268Z,4.7
2018-11-25T14:03:33.950Z,4.71
2018-11-25T14:04:42.893Z,4.67
2018-11-25T14:05:57.759Z,4.7
2018-11-25T14:07:06.450Z,4.66
2018-11-25T14:08:15.135Z,4.66
2018-11-25T14:09:24.068Z,4.71
2018-11-25T14:10:32.759Z,4.66
2018-11-25T14:11:41.702Z,4.66
2018-11-25T14:12:50.676Z,4.66
2018-11-25T14:13:59.368Z,4.67
2018-11-25T14:15:08.311Z,4.64
2018-11-25T14:16:17.248Z,4.67
2018-11-25T14:17:25.934Z,4.6
2018-11-25T14:18:34.615Z,4.67
2018-11-25T14:19:43.307Z,4.67
2018-11-25T14:20:51.992Z,4.64
2018-11-25T14:22:00.679Z,4.7
2018-11-25T14:23:09.362Z,4.67
2018-11-25T14:24:18.304Z,4.63
2018-11-25T14:25:27.514Z,4.66
2018-11-25T14:26:36.194Z,4.67
2018-11-25T14:27:45.398Z,4.61
2018-11-25T14:28:54.085Z,4.67
2018-11-25T14:30:02.761Z,4.68
2018-11-25T14:31:19.999Z,4.68
2018-11-25T14:32:28.936Z,4.64
2018-11-25T14:33:37.615Z,4.68
2018-11-25T14:34:46.294Z,4.66
2018-11-25T14:35:55.240Z,4.67
2018-11-25T14:37:04.452Z,4.61
2018-11-25T14:38:13.390Z,4.66
2018-11-25T14:39:22.063Z,4.66
2018-11-25T14:40:31.005Z,4.67
2018-11-25T14:41:39.941Z,4.6
2018-11-25T14:42:48.630Z,4.67
2018-11-25T14:43:57.812Z,4.63
2018-11-25T14:45:06.502Z,4.64
2018-11-25T14:46:15.193Z,4.61
2018-11-25T14:47:23.875Z,4.64
2018-11-25T14:48:32.574Z,4.52
2018-11-25T14:49:41.237Z,4.61
2018-11-25T14:50:50.182Z,4.53
2018-11-25T14:51:58.860Z,4.49
2018-11-25T14:53:07.813Z,4.52
2018-11-25T14:54:16.486Z,4.58
2018-11-25T14:55:25.176Z,4.56
2018-11-25T14:56:34.097Z,4.5
2018-11-25T14:57:43.050Z,4.61
2018-11-25T14:58:51.718Z,4.56
2018-11-25T15:00:00.401Z,4.56
2018-11-25T15:01:09.333Z,4.64
2018-11-25T15:02:18.282Z,4.61
2018-11-25T15:03:26.958Z,4.63
2018-11-25T15:04:40.857Z,4.63
2018-11-25T15:05:49.533Z,4.61
2018-11-25T15:06:58.471Z,4.64
2018-11-25T15:08:07.235Z,4.66
2018-11-25T15:09:16.420Z,4.64
2018-11-25T15:10:25.104Z,4.64
2018-11-25T15:11:33.772Z,4.63
2018-11-25T15:12:42.469Z,4.61
2018-11-25T15:13:51.145Z,4.61
2018-11-25T15:14:59.832Z,4.53
2018-11-25T15:16:08.500Z,4.52
2018-11-25T15:17:17.201Z,4.53
2018-11-25T15:18:25.896Z,4.5
2018-11-25T15:19:35.094Z,4.64
2018-11-25T15:20:43.761Z,4.6